createdAt,value
2022-10-03T00:01:34.513Z,32.63
2022-10-03T00:04:14.943Z,29.93
2022-10-03T00:06:54.114Z,34.97
2022-10-03T00:09:40.105Z,36.37
2022-10-03T00:12:18.255Z,35.93
2022-10-03T00:14:54.868Z,30.23
2022-10-03T00:17:28.423Z,36.17
2022-10-03T00:20:06.306Z,33.20
2022-10-03T00:22:41.370Z,27.50
2022-10-03T00:25:30.194Z,30.17
2022-10-03T00:28:14.471Z,28.13
2022-10-03T00:30:55.307Z,27.03
2022-10-03T00:33:34.071Z,28.07
2022-10-03T00:36:08.868Z,27.13
2022-10-03T00:38:58.955Z,28.23
2022-10-03T00:42:13.694Z,29.20
2022-10-03T00:45:12.130Z,29.37
2022-10-03T00:48:02.261Z,27.87
2022-10-03T00:50:53.476Z,28.43
2022-10-03T00:53:42.097Z,27.20
2022-10-03T00:56:37.072Z,27.03
2022-10-03T00:59:24.409Z,24.70
2022-10-03T01:01:53.111Z,23.77
2022-10-03T01:04:40.809Z,22.67
2022-10-03T01:07:25.327Z,22.17
2022-10-03T01:10:09.666Z,24.67
2022-10-03T01:13:10.137Z,25.43
2022-10-03T01:15:52.677Z,24.17
2022-10-03T01:18:32.959Z,24.20
2022-10-03T01:21:13.336Z,23.67
2022-10-03T01:24:17.190Z,23.67
2022-10-03T01:26:58.425Z,25.67
2022-10-03T01:30:09.114Z,24.37
2022-10-03T01:32:45.767Z,25.27
2022-10-03T01:35:24.447Z,25.07
2022-10-03T01:38:03.155Z,24.67
2022-10-03T01:40:37.070Z,22.90
2022-10-03T01:43:14.759Z,26.87
2022-10-03T01:45:56.529Z,23.50
2022-10-03T01:48:32.434Z,25.50
2022-10-03T01:51:06.882Z,27.50
2022-10-03T01:53:47.669Z,26.10
2022-10-03T01:56:26.922Z,28.60
2022-10-03T01:59:01.934Z,25.97
2022-10-03T02:01:41.528Z,25.33
2022-10-03T02:04:20.241Z,24.03
2022-10-03T02:06:58.286Z,23.23
2022-10-03T02:09:33.727Z,23.40
2022-10-03T02:12:10.975Z,22.70
2022-10-03T02:14:51.376Z,29.30
2022-10-03T02:17:36.602Z,26.70
2022-10-03T02:20:14.401Z,22.47
2022-10-03T02:22:47.437Z,22.73
2022-10-03T02:25:26.091Z,23.17
2022-10-03T02:28:30.755Z,24.03
2022-10-03T02:31:55.031Z,23.77
2022-10-03T02:35:00.717Z,22.37
2022-10-03T02:38:01.693Z,23.60
2022-10-03T02:40:58.219Z,23.20
2022-10-03T02:44:11.333Z,22.50
2022-10-03T02:47:17.514Z,23.07
2022-10-03T02:50:20.001Z,21.43
2022-10-03T02:53:26.138Z,21.50
2022-10-03T02:56:25.645Z,22.17
2022-10-03T02:59:19.485Z,22.23
2022-10-03T03:02:27.818Z,21.87
2022-10-03T03:05:31.272Z,21.37
2022-10-03T03:08:33.739Z,21.67
2022-10-03T03:11:38.975Z,21.07
2022-10-03T03:14:38.773Z,23.30
2022-10-03T03:17:26.416Z,25.30
2022-10-03T03:20:23.739Z,25.80
2022-10-03T03:23:29.541Z,25.47
2022-10-03T03:26:29.461Z,32.20
2022-10-03T03:29:09.512Z,26.67
2022-10-03T03:31:44.649Z,40.53
2022-10-03T03:34:22.581Z,31.73
2022-10-03T03:36:55.745Z,31.23
2022-10-03T03:39:43.596Z,27.77
2022-10-03T03:42:29.942Z,25.20
2022-10-03T03:45:19.965Z,30.53
2022-10-03T03:48:05.616Z,32.90
2022-10-03T03:50:53.144Z,29.87
2022-10-03T03:54:00.034Z,27.77
2022-10-03T03:56:47.315Z,27.97
2022-10-03T03:59:31.291Z,32.90
2022-10-03T04:02:29.610Z,32.07
2022-10-03T04:05:09.671Z,41.23
2022-10-03T04:07:50.734Z,31.27
2022-10-03T04:10:30.286Z,38.27
2022-10-03T04:13:19.444Z,24.93
2022-10-03T04:16:15.326Z,27.23
2022-10-03T04:18:59.062Z,29.23
2022-10-03T04:21:51.972Z,28.93
2022-10-03T04:24:45.103Z,26.10
2022-10-03T04:27:26.720Z,31.63
2022-10-03T04:30:04.926Z,39.40
2022-10-03T04:32:57.463Z,42.30
2022-10-03T04:35:54.163Z,34.90
2022-10-03T04:38:35.474Z,35.50
2022-10-03T04:41:13.785Z,42.97
2022-10-03T04:43:52.537Z,38.53
2022-10-03T04:46:29.157Z,35.13
2022-10-03T04:49:05.876Z,29.40
2022-10-03T04:51:55.218Z,28.13
2022-10-03T04:54:31.077Z,42.33
2022-10-03T04:57:06.383Z,47.57
2022-10-03T04:59:46.452Z,36.70
2022-10-03T05:02:30.320Z,48.13
2022-10-03T05:05:25.094Z,45.57
2022-10-03T05:08:01.793Z,43.73
2022-10-03T05:10:49.721Z,50.67
2022-10-03T05:13:25.541Z,40.60
2022-10-03T05:16:03.039Z,45.13
2022-10-03T05:18:39.481Z,50.17
2022-10-03T05:21:14.309Z,50.90
2022-10-03T05:23:54.154Z,53.30
2022-10-03T05:26:44.618Z,45.90
2022-10-03T05:29:25.401Z,48.27
2022-10-03T05:32:07.631Z,39.97
2022-10-03T05:35:02.446Z,44.13
2022-10-03T05:37:58.635Z,47.53
2022-10-03T05:40:28.309Z,42.43
2022-10-03T05:43:09.329Z,38.53
2022-10-03T05:45:50.007Z,37.37
2022-10-03T05:48:32.815Z,37.80
2022-10-03T05:51:39.897Z,37.57
2022-10-03T05:54:40.960Z,33.43
2022-10-03T05:57:33.034Z,28.30
2022-10-03T06:00:11.668Z,31.17
2022-10-03T06:03:00.778Z,32.83
2022-10-03T06:05:33.501Z,30.53
2022-10-03T06:08:46.502Z,36.40
2022-10-03T06:11:28.364Z,35.80
2022-10-03T06:14:25.413Z,37.73
2022-10-03T06:17:04.328Z,36.60
2022-10-03T06:19:49.947Z,34.40
2022-10-03T06:23:02.417Z,35.90
2022-10-03T06:26:26.908Z,34.63
2022-10-03T06:29:29.693Z,37.30
2022-10-03T06:32:32.617Z,34.77
2022-10-03T06:35:29.810Z,38.07
2022-10-03T06:38:30.895Z,39.20
2022-10-03T06:41:35.251Z,39.70
2022-10-03T06:44:25.962Z,34.53
2022-10-03T06:47:11.382Z,34.93
2022-10-03T06:50:19.523Z,37.20
2022-10-03T06:53:12.778Z,37.20
2022-10-03T06:56:25.929Z,37.53
2022-10-03T06:59:26.029Z,37.27
2022-10-03T07:02:20.877Z,34.70
2022-10-03T07:05:39.870Z,32.17
2022-10-03T07:08:40.443Z,31.90
2022-10-03T07:11:26.845Z,27.63
2022-10-03T07:14:43.097Z,27.57
2022-10-03T07:17:28.887Z,24.70
2022-10-03T07:20:21.400Z,24.53
2022-10-03T07:23:16.689Z,23.60
2022-10-03T07:26:38.311Z,20.87
2022-10-03T07:29:49.219Z,18.93
2022-10-03T07:33:14.453Z,17.90
2022-10-03T07:36:08.964Z,16.37
2022-10-03T07:39:07.093Z,17.13
2022-10-03T07:42:00.800Z,16.23
2022-10-03T07:45:00.777Z,16.73
2022-10-03T07:48:00.894Z,16.47
2022-10-03T07:50:53.825Z,14.93
2022-10-03T07:53:53.448Z,14.90
2022-10-03T07:56:42.917Z,15.07
2022-10-03T07:59:48.516Z,13.50
2022-10-03T08:02:42.000Z,12.77
2022-10-03T08:05:30.324Z,13.10
2022-10-03T08:08:22.391Z,15.90
2022-10-03T08:11:19.894Z,14.80
2022-10-03T08:14:02.600Z,15.60
2022-10-03T08:17:09.760Z,16.30
2022-10-03T08:20:00.923Z,15.20
2022-10-03T08:22:45.693Z,15.93
2022-10-03T08:25:30.809Z,16.97
2022-10-03T08:28:38.683Z,16.00
2022-10-03T08:31:36.275Z,15.27
2022-10-03T08:34:39.089Z,14.20
2022-10-03T08:37:40.171Z,13.63
2022-10-03T08:40:56.771Z,14.87
2022-10-03T08:44:10.101Z,15.20
2022-10-03T08:47:05.338Z,14.43
2022-10-03T08:50:05.064Z,15.17
2022-10-03T08:52:48.734Z,15.00
2022-10-03T08:55:42.965Z,14.47
2022-10-03T08:58:37.812Z,14.10
2022-10-03T09:01:29.730Z,14.43
2022-10-03T09:04:36.515Z,14.40
2022-10-03T09:07:38.580Z,16.47
2022-10-03T09:10:36.358Z,14.10
2022-10-03T09:13:50.190Z,14.10
2022-10-03T09:16:44.657Z,12.97
2022-10-03T09:19:52.787Z,12.47
2022-10-03T09:22:45.168Z,12.37
2022-10-03T09:25:24.525Z,12.37
2022-10-03T09:28:25.444Z,12.10
2022-10-03T09:31:04.106Z,12.30
2022-10-03T09:34:07.804Z,11.70
2022-10-03T09:37:13.125Z,13.30
2022-10-03T09:40:10.951Z,12.87
2022-10-03T09:43:23.678Z,11.87
2022-10-03T09:46:34.350Z,12.97
2022-10-03T09:49:31.142Z,12.37
2022-10-03T09:52:15.476Z,12.53
2022-10-03T09:55:34.183Z,13.60
2022-10-03T09:58:46.118Z,14.47
2022-10-03T10:01:27.570Z,13.70
2022-10-03T10:04:55.741Z,14.13
2022-10-03T10:08:04.914Z,12.70
2022-10-03T10:10:57.871Z,12.77
2022-10-03T10:14:07.662Z,12.53
2022-10-03T10:17:02.030Z,12.07
2022-10-03T10:19:46.859Z,11.77
2022-10-03T10:22:54.217Z,12.07
2022-10-03T10:25:49.758Z,12.27
2022-10-03T10:28:53.562Z,11.90
2022-10-03T10:32:11.837Z,13.00
2022-10-03T10:35:17.612Z,14.47
2022-10-03T10:38:03.036Z,17.60
2022-10-03T10:40:54.271Z,15.73
2022-10-03T10:43:59.055Z,25.27
2022-10-03T10:47:02.186Z,30.13
2022-10-03T10:50:08.758Z,18.77
2022-10-03T10:53:19.154Z,19.63
2022-10-03T10:56:27.377Z,19.30
2022-10-03T10:59:34.501Z,18.10
2022-10-03T11:02:36.205Z,17.07
2022-10-03T11:05:48.343Z,14.70
2022-10-03T11:08:55.472Z,12.87
2022-10-03T11:12:02.878Z,13.77
2022-10-03T11:15:17.445Z,13.37
2022-10-03T11:18:28.178Z,13.03
2022-10-03T11:21:33.643Z,12.53
2022-10-03T11:24:41.579Z,12.70
2022-10-03T11:27:44.606Z,13.07
2022-10-03T11:30:54.720Z,13.20
2022-10-03T11:33:59.936Z,13.20
2022-10-03T11:37:00.756Z,13.60
2022-10-03T11:39:40.325Z,14.17
2022-10-03T11:42:21.310Z,13.90
2022-10-03T11:44:57.460Z,13.77
2022-10-03T11:47:45.185Z,15.00
2022-10-03T11:50:29.344Z,13.73
2022-10-03T11:53:20.774Z,14.63
2022-10-03T11:55:58.972Z,14.70
2022-10-03T11:58:42.684Z,16.43
2022-10-03T12:01:22.601Z,15.87
2022-10-03T12:03:58.437Z,15.10
2022-10-03T12:07:17.372Z,14.60
2022-10-03T12:09:58.127Z,14.80
2022-10-03T12:12:37.185Z,15.13
2022-10-03T12:15:25.460Z,14.57
2022-10-03T12:18:07.706Z,14.73
2022-10-03T12:21:01.256Z,15.60
2022-10-03T12:23:44.670Z,14.27
2022-10-03T12:26:19.184Z,14.03
2022-10-03T12:28:54.227Z,14.50
2022-10-03T12:31:27.903Z,14.00
2022-10-03T12:34:18.933Z,15.37
2022-10-03T12:36:54.238Z,15.80
2022-10-03T12:39:36.874Z,14.97
2022-10-03T12:42:24.067Z,14.67
2022-10-03T12:44:59.358Z,14.47
2022-10-03T12:47:56.796Z,14.07
2022-10-03T12:50:43.363Z,13.13
2022-10-03T12:53:26.724Z,12.63
2022-10-03T12:56:06.571Z,12.23
2022-10-03T12:58:48.587Z,12.30
2022-10-03T13:01:26.273Z,11.83
2022-10-03T13:03:58.826Z,12.03
2022-10-03T13:07:02.930Z,11.47
2022-10-03T13:10:03.792Z,11.50
2022-10-03T13:12:41.212Z,12.47
2022-10-03T13:15:42.992Z,11.73
2022-10-03T13:18:33.771Z,12.30
2022-10-03T13:21:26.809Z,11.10
2022-10-03T13:24:02.169Z,12.90
2022-10-03T13:26:51.446Z,11.57
2022-10-03T13:29:27.789Z,11.13
2022-10-03T13:32:16.288Z,11.37
2022-10-03T13:34:59.323Z,10.57
2022-10-03T13:37:36.786Z,10.43
2022-10-03T13:40:09.369Z,11.03
2022-10-03T13:42:41.904Z,10.60
2022-10-03T13:45:17.453Z,9.83
2022-10-03T13:47:51.695Z,10.33
2022-10-03T13:50:24.997Z,10.37
2022-10-03T13:53:01.164Z,8.80
2022-10-03T13:55:40.417Z,9.63
2022-10-03T13:58:32.993Z,10.00
2022-10-03T14:01:30.239Z,10.20
2022-10-03T14:04:19.175Z,9.23
2022-10-03T14:06:53.542Z,9.33
2022-10-03T14:09:38.323Z,10.90
2022-10-03T14:12:24.755Z,9.97
2022-10-03T14:15:27.855Z,9.93
2022-10-03T14:18:06.892Z,10.60
2022-10-03T14:21:00.640Z,11.13
2022-10-03T14:23:35.582Z,10.20
2022-10-03T14:26:14.252Z,10.67
2022-10-03T14:28:49.759Z,10.60
2022-10-03T14:31:24.351Z,10.03
2022-10-03T14:34:00.374Z,8.67
2022-10-03T14:36:41.101Z,10.97
2022-10-03T14:39:27.074Z,7.80
2022-10-03T14:42:26.002Z,8.47
2022-10-03T14:44:59.601Z,7.70
2022-10-03T14:47:35.431Z,8.23
2022-10-03T14:50:05.893Z,8.40
2022-10-03T14:52:40.785Z,8.50
2022-10-03T14:55:14.934Z,9.03
2022-10-03T14:58:09.209Z,8.37
2022-10-03T15:00:43.824Z,7.50
2022-10-03T15:03:33.906Z,7.20
2022-10-03T15:06:34.209Z,7.00
2022-10-03T15:09:06.239Z,7.23
2022-10-03T15:11:38.070Z,7.07
2022-10-03T15:14:11.291Z,8.03
2022-10-03T15:16:45.928Z,7.20
2022-10-03T15:19:19.804Z,8.30
2022-10-03T15:21:52.044Z,9.10
2022-10-03T15:24:25.541Z,8.50
2022-10-03T15:27:01.992Z,8.53
2022-10-03T15:29:34.183Z,8.77
2022-10-03T15:32:06.026Z,8.17
2022-10-03T15:34:40.926Z,8.10
2022-10-03T15:37:16.919Z,8.30
2022-10-03T15:39:48.199Z,8.30
2022-10-03T15:42:24.125Z,8.70
2022-10-03T15:44:58.030Z,8.03
2022-10-03T15:47:28.250Z,8.00
2022-10-03T15:50:00.953Z,7.53
2022-10-03T15:52:40.251Z,6.90
2022-10-03T15:55:16.084Z,7.57
2022-10-03T15:57:47.670Z,7.07
2022-10-03T16:00:30.632Z,7.33
2022-10-03T16:03:12.821Z,7.20
2022-10-03T16:05:57.817Z,7.53
2022-10-03T16:08:30.513Z,9.23
2022-10-03T16:11:10.098Z,7.57
2022-10-03T16:13:41.225Z,7.37
2022-10-03T16:16:19.010Z,7.57
2022-10-03T16:19:02.035Z,7.13
2022-10-03T16:21:46.298Z,7.57
2022-10-03T16:24:22.590Z,7.30
2022-10-03T16:26:56.061Z,8.23
2022-10-03T16:29:28.940Z,8.13
2022-10-03T16:32:05.040Z,8.03
2022-10-03T16:34:35.437Z,8.77
2022-10-03T16:37:06.951Z,8.23
2022-10-03T16:39:37.593Z,8.73
2022-10-03T16:42:14.510Z,8.43
2022-10-03T16:44:52.698Z,8.13
2022-10-03T16:47:32.640Z,7.50
2022-10-03T16:50:19.261Z,7.33
2022-10-03T16:52:49.865Z,7.70
2022-10-03T16:55:20.357Z,7.70
2022-10-03T16:57:53.192Z,6.97
2022-10-03T17:00:24.981Z,8.17
2022-10-03T17:02:57.185Z,7.53
2022-10-03T17:05:26.938Z,7.43
2022-10-03T17:08:06.565Z,7.27
2022-10-03T17:10:48.703Z,7.10
2022-10-03T17:13:20.749Z,6.67
2022-10-03T17:15:53.779Z,6.63
2022-10-03T17:18:27.267Z,7.33
2022-10-03T17:20:59.321Z,7.20
2022-10-03T17:23:35.883Z,6.57
2022-10-03T17:26:11.025Z,7.27
2022-10-03T17:28:44.706Z,7.03
2022-10-03T17:31:31.536Z,6.60
2022-10-03T17:34:10.142Z,7.47
2022-10-03T17:37:19.268Z,7.27
2022-10-03T17:39:56.044Z,6.83
2022-10-03T17:42:41.234Z,7.40
2022-10-03T17:45:30.695Z,7.63
2022-10-03T17:48:02.444Z,7.80
2022-10-03T17:50:37.400Z,8.37
2022-10-03T17:53:06.582Z,8.83
2022-10-03T17:55:39.941Z,9.40
2022-10-03T17:58:14.426Z,8.83
2022-10-03T18:01:00.034Z,8.43
2022-10-03T18:03:34.290Z,8.13
2022-10-03T18:06:22.894Z,8.77
2022-10-03T18:08:53.062Z,8.03
2022-10-03T18:11:24.754Z,8.47
2022-10-03T18:14:03.093Z,7.93
2022-10-03T18:16:35.668Z,7.57
2022-10-03T18:19:15.136Z,8.20
2022-10-03T18:21:58.802Z,8.00
2022-10-03T18:24:41.797Z,7.80
2022-10-03T18:27:46.325Z,8.23
2022-10-03T18:30:19.783Z,8.27
2022-10-03T18:32:49.065Z,9.40
2022-10-03T18:35:21.756Z,8.77
2022-10-03T18:38:06.354Z,9.00
2022-10-03T18:40:37.710Z,8.87
2022-10-03T18:43:07.641Z,9.13
2022-10-03T18:45:44.511Z,10.10
2022-10-03T18:48:17.091Z,9.30
2022-10-03T18:50:57.242Z,10.00
2022-10-03T18:53:34.610Z,9.23
2022-10-03T18:56:07.805Z,9.57
2022-10-03T18:58:38.436Z,9.83
2022-10-03T19:01:14.639Z,9.70
2022-10-03T19:03:47.867Z,9.40
2022-10-03T19:06:22.964Z,8.63
2022-10-03T19:08:56.550Z,8.73
2022-10-03T19:11:30.526Z,8.77
2022-10-03T19:14:03.670Z,9.00
2022-10-03T19:16:58.924Z,8.27
2022-10-03T19:19:34.045Z,8.13
2022-10-03T19:22:06.718Z,8.10
2022-10-03T19:24:57.306Z,8.10
2022-10-03T19:27:40.772Z,8.17
2022-10-03T19:30:10.334Z,7.63
2022-10-03T19:32:53.938Z,7.40
2022-10-03T19:35:24.641Z,7.83
2022-10-03T19:37:55.007Z,7.70
2022-10-03T19:40:46.235Z,8.30
2022-10-03T19:43:39.432Z,7.87
2022-10-03T19:46:37.229Z,8.20
2022-10-03T19:49:21.930Z,8.47
2022-10-03T19:51:50.568Z,8.30
2022-10-03T19:54:32.158Z,8.27
2022-10-03T19:57:05.568Z,9.23
2022-10-03T19:59:45.894Z,8.13
2022-10-03T20:02:14.432Z,7.90
2022-10-03T20:04:42.727Z,8.90
2022-10-03T20:07:18.011Z,8.40
2022-10-03T20:09:57.759Z,8.70
2022-10-03T20:12:30.163Z,9.07
2022-10-03T20:15:02.359Z,9.70
2022-10-03T20:17:32.579Z,9.63
2022-10-03T20:20:06.100Z,8.90
2022-10-03T20:22:36.633Z,9.70
2022-10-03T20:25:09.287Z,10.00
2022-10-03T20:27:42.855Z,9.83
2022-10-03T20:30:24.861Z,9.50
2022-10-03T20:32:55.016Z,9.67
2022-10-03T20:35:25.261Z,10.27
2022-10-03T20:37:58.459Z,11.33
2022-10-03T20:40:31.105Z,11.57
2022-10-03T20:43:26.650Z,10.90
2022-10-03T20:46:10.912Z,14.17
2022-10-03T20:48:45.146Z,12.17
2022-10-03T20:51:22.604Z,11.87
2022-10-03T20:53:55.029Z,11.97
2022-10-03T20:56:31.406Z,11.97
2022-10-03T20:59:03.850Z,12.53
2022-10-03T21:01:35.333Z,13.63
2022-10-03T21:04:12.235Z,11.87
2022-10-03T21:06:53.941Z,11.60
2022-10-03T21:09:41.033Z,11.57
2022-10-03T21:12:19.894Z,10.43
2022-10-03T21:14:56.165Z,9.60
2022-10-03T21:17:27.604Z,10.07
2022-10-03T21:20:00.090Z,9.27
2022-10-03T21:22:30.654Z,9.43
2022-10-03T21:25:02.383Z,9.30
2022-10-03T21:27:32.245Z,8.00
2022-10-03T21:30:15.429Z,8.33
2022-10-03T21:33:00.282Z,7.20
2022-10-03T21:35:31.512Z,6.70
2022-10-03T21:38:12.845Z,5.57
2022-10-03T21:40:56.746Z,5.80
2022-10-03T21:43:38.676Z,5.03
2022-10-03T21:46:16.376Z,5.17
2022-10-03T21:48:59.272Z,4.47
2022-10-03T21:51:30.495Z,4.50
2022-10-03T21:54:15.562Z,4.43
2022-10-03T21:56:58.513Z,3.70
2022-10-03T21:59:57.175Z,3.70
2022-10-03T22:02:36.470Z,3.60
2022-10-03T22:05:15.563Z,4.10
2022-10-03T22:07:44.822Z,3.23
2022-10-03T22:10:21.412Z,3.60
2022-10-03T22:12:54.173Z,3.27
2022-10-03T22:15:28.703Z,2.90
2022-10-03T22:18:01.238Z,3.13
2022-10-03T22:20:31.480Z,2.60
2022-10-03T22:23:24.066Z,2.80
2022-10-03T22:26:05.262Z,3.10
2022-10-03T22:28:51.745Z,2.73
2022-10-03T22:31:27.029Z,2.50
2022-10-03T22:34:14.341Z,2.97
2022-10-03T22:36:43.543Z,2.77
2022-10-03T22:39:14.577Z,2.67
2022-10-03T22:41:46.934Z,2.93
2022-10-03T22:44:17.623Z,2.40
2022-10-03T22:46:50.788Z,2.93
2022-10-03T22:49:23.803Z,2.53
2022-10-03T22:51:55.205Z,2.67
2022-10-03T22:54:24.871Z,2.47
2022-10-03T22:56:56.521Z,2.87
2022-10-03T22:59:27.710Z,3.00
2022-10-03T23:01:59.672Z,2.23
2022-10-03T23:04:35.022Z,2.57
2022-10-03T23:07:27.355Z,2.67
2022-10-03T23:10:05.565Z,2.60
2022-10-03T23:12:41.069Z,2.20
2022-10-03T23:15:11.176Z,2.63
2022-10-03T23:17:55.593Z,2.37
2022-10-03T23:20:44.807Z,2.43
2022-10-03T23:23:17.634Z,2.23
2022-10-03T23:25:55.964Z,2.20
2022-10-03T23:28:31.380Z,2.10
2022-10-03T23:30:59.627Z,2.30
2022-10-03T23:33:51.178Z,1.90
2022-10-03T23:36:24.691Z,2.00
2022-10-03T23:39:00.019Z,1.83
2022-10-03T23:41:57.835Z,1.90
2022-10-03T23:44:48.929Z,1.90
2022-10-03T23:47:20.040Z,1.90
2022-10-03T23:49:52.205Z,1.70
2022-10-03T23:52:27.180Z,1.90
2022-10-03T23:54:58.585Z,1.83
2022-10-03T23:57:31.843Z,1.80
